Time;durP1;ratioP1;P1;durP2;ratioP2;P2;SDS_P1;SDS_P2;PMS_P1;PMS_P2;Temp;Humidity;BMP_temperature;BMP_pressure;BME280_temperature;BME280_humidity;BME280_pressure;Samples;Min_cycle;Max_cycle;Signal;HPM_P1;HPM_P2
2022/11/28 00:03:49;;;;;;;78.10;43.00;;;;;;;-0.76;83.94;100814.52;210022;1294;140479;-66
2022/11/28 00:08:56;;;;;;;79.10;44.40;;;;;;;-0.61;84.37;100806.09;210106;1294;140158;-65
2022/11/28 00:13:59;;;;;;;68.00;41.70;;;;;;;-0.62;83.62;100801.61;209951;1293;140689;-65
2022/11/28 00:19:04;;;;;;;76.40;43.60;;;;;;;-0.75;83.44;100801.02;209981;1297;139886;-66
2022/11/28 00:24:08;;;;;;;87.20;45.50;;;;;;;-0.78;83.34;100796.23;210119;1303;141137;-67
2022/11/28 00:29:12;;;;;;;92.90;51.70;;;;;;;-0.78;83.39;100798.34;210353;1295;140148;-65
2022/11/28 00:34:18;;;;;;;89.30;45.80;;;;;;;-0.89;83.22;100801.64;210269;1295;139570;-65
2022/11/28 00:39:26;;;;;;;79.90;46.10;;;;;;;-1.05;82.85;100791.63;210019;1292;140774;-65
2022/11/28 00:44:30;;;;;;;83.90;45.50;;;;;;;-1.18;82.87;100786.46;210005;1295;139855;-66
2022/11/28 00:49:33;;;;;;;82.50;41.40;;;;;;;-1.25;83.09;100781.61;209808;1300;140632;-65
2022/11/28 00:54:37;;;;;;;82.40;45.50;;;;;;;-1.26;83.08;100772.97;209458;1292;140161;-66
2022/11/28 00:59:41;;;;;;;118.00;56.00;;;;;;;-1.24;83.05;100767.02;210156;1293;141185;-65
2022/11/28 01:04:44;;;;;;;96.50;51.10;;;;;;;-1.27;83.14;100769.73;210236;1300;140478;-65
2022/11/28 01:09:47;;;;;;;92.10;49.60;;;;;;;-1.25;83.57;100775.11;210029;1296;139388;-66
2022/11/28 01:14:50;;;;;;;92.60;42.20;;;;;;;-1.22;83.43;100771.01;210220;1287;139752;-66
2022/11/28 01:19:53;;;;;;;90.20;46.30;;;;;;;-1.19;83.25;100764.82;210147;1295;140873;-65
2022/11/28 01:24:56;;;;;;;101.10;48.00;;;;;;;-1.29;82.61;100753.35;210111;1295;140478;-66
2022/11/28 01:30:00;;;;;;;94.00;51.20;;;;;;;-1.42;82.82;100744.18;210135;1292;139798;-65
2022/11/28 01:35:03;;;;;;;95.20;47.10;;;;;;;-1.48;83.24;100740.45;208662;1295;140619;-65
2022/11/28 01:40:09;;;;;;;81.30;44.20;;;;;;;-1.45;83.15;100742.69;210122;1295;140195;-64
2022/11/28 01:45:23;;;;;;;81.60;44.80;;;;;;;-1.42;82.89;100730.56;210069;1294;140588;-65
2022/11/28 01:50:28;;;;;;;94.80;48.60;;;;;;;-1.44;83.07;100722.35;210146;1301;142081;-67
2022/11/28 01:55:38;;;;;;;87.70;47.60;;;;;;;-1.54;82.72;100714.87;210249;1296;140662;-67
2022/11/28 02:00:42;;;;;;;82.10;48.50;;;;;;;-1.72;82.58;100714.17;210193;1297;140284;-67
2022/11/28 02:05:47;;;;;;;84.50;46.50;;;;;;;-1.75;83.24;100704.98;209713;1301;140872;-67
2022/11/28 02:11:23;;;;;;;74.10;44.30;;;;;;;-1.65;83.44;100700.83;210054;1298;141207;-68
2022/11/28 02:17:00;;;;;;;89.70;48.10;;;;;;;-1.63;83.01;100698.59;209952;1295;140624;-67
2022/11/28 02:22:28;;;;;;;87.70;50.90;;;;;;;-1.66;83.18;100696.05;210027;1300;140036;-67
2022/11/28 02:28:12;;;;;;;71.50;40.20;;;;;;;-1.67;83.21;100694.44;210224;1298;141282;-67
2022/11/28 02:33:44;;;;;;;66.50;38.00;;;;;;;-1.69;83.16;100688.63;209970;1305;220767;-65
2022/11/28 02:39:30;;;;;;;70.10;39.00;;;;;;;-1.63;83.16;100676.50;210133;1295;141518;-65
2022/11/28 02:44:43;;;;;;;83.60;45.20;;;;;;;-1.61;83.19;100669.14;210038;1297;140130;-65
2022/11/28 02:50:10;;;;;;;75.50;42.90;;;;;;;-1.73;82.86;100665.23;209799;1297;141038;-65
2022/11/28 02:55:15;;;;;;;78.40;45.50;;;;;;;-1.86;82.66;100664.64;209913;1297;140094;-66
2022/11/28 03:00:35;;;;;;;73.00;36.70;;;;;;;-1.91;82.75;100665.64;210069;1303;139914;-65
2022/11/28 03:05:49;;;;;;;69.60;38.00;;;;;;;-1.85;82.95;100661.11;209907;1299;141253;-65
2022/11/28 03:11:19;;;;;;;70.70;40.60;;;;;;;-1.84;82.72;100663.23;208483;1294;139898;-65
2022/11/28 03:16:29;;;;;;;62.10;35.90;;;;;;;-1.92;82.48;100659.27;209443;1302;140752;-65
2022/11/28 03:21:51;;;;;;;67.70;40.30;;;;;;;-2.03;82.54;100659.52;209976;1300;140572;-66
2022/11/28 03:27:15;;;;;;;61.50;35.20;;;;;;;-2.12;82.72;100653.98;210059;1292;140983;-65
2022/11/28 03:32:24;;;;;;;74.00;39.00;;;;;;;-2.16;82.81;100646.75;210025;1303;140122;-65
2022/11/28 03:37:34;;;;;;;62.50;34.10;;;;;;;-2.09;82.75;100643.63;209880;1305;140187;-65
2022/11/28 03:42:46;;;;;;;53.10;35.10;;;;;;;-2.08;82.86;100643.02;210051;1302;140237;-64
2022/11/28 03:47:59;;;;;;;61.00;35.60;;;;;;;-2.17;82.25;100638.62;209792;1299;140184;-65
2022/11/28 03:53:11;;;;;;;60.70;37.20;;;;;;;-2.33;82.29;100641.56;210167;1293;140478;-64
2022/11/28 03:58:15;;;;;;;68.30;37.20;;;;;;;-2.34;82.78;100641.31;210022;1295;140161;-64
2022/11/28 04:03:45;;;;;;;60.80;33.60;;;;;;;-2.26;82.93;100639.38;210062;1296;142438;-64
2022/11/28 04:09:09;;;;;;;67.90;35.00;;;;;;;-2.17;83.15;100638.28;210170;1302;142068;-64
2022/11/28 04:14:28;;;;;;;60.90;34.40;;;;;;;-2.19;82.80;100638.08;209826;1299;139807;-65
2022/11/28 04:19:42;;;;;;;60.80;33.30;;;;;;;-2.22;82.87;100633.98;210180;1295;140276;-65
2022/11/28 04:24:50;;;;;;;60.70;33.40;;;;;;;-2.25;82.90;100637.58;210070;1301;140234;-64
2022/11/28 04:30:00;;;;;;;57.50;32.70;;;;;;;-2.16;83.00;100628.65;209976;1293;140278;-65
2022/11/28 04:35:09;;;;;;;60.20;33.40;;;;;;;-2.08;83.33;100631.14;210019;1295;140980;-65
2022/11/28 04:40:15;;;;;;;46.50;26.40;;;;;;;-2.04;83.30;100620.25;209989;1304;140706;-64
2022/11/28 04:45:36;;;;;;;55.20;30.50;;;;;;;-2.03;83.22;100617.17;210167;1293;141480;-65
2022/11/28 04:51:00;;;;;;;60.60;34.40;;;;;;;-1.97;83.13;100617.72;209876;1300;140836;-66
2022/11/28 04:56:20;;;;;;;58.60;36.40;;;;;;;-1.89;83.63;100622.48;210048;1288;141742;-64
2022/11/28 05:01:28;;;;;;;74.20;37.90;;;;;;;-1.76;84.05;100618.79;210225;1297;140290;-64
2022/11/28 05:06:35;;;;;;;92.10;38.30;;;;;;;-1.68;84.07;100615.33;210014;1290;140207;-66
2022/11/28 05:11:39;;;;;;;60.40;29.00;;;;;;;-1.50;84.18;100613.88;210124;1288;140544;-67
2022/11/28 05:16:42;;;;;;;46.70;25.50;;;;;;;-1.33;84.55;100606.48;210167;1299;140307;-64
2022/11/28 05:21:46;;;;;;;43.10;24.20;;;;;;;-1.17;85.03;100606.09;210074;1288;140032;-64
2022/11/28 05:26:50;;;;;;;44.40;23.30;;;;;;;-1.03;85.22;100610.09;210020;1297;140578;-64
2022/11/28 05:31:53;;;;;;;86.50;37.90;;;;;;;-0.84;84.98;100612.87;210007;1296;140558;-66
2022/11/28 05:36:57;;;;;;;81.70;34.30;;;;;;;-0.71;85.00;100609.52;207052;1293;140394;-64
2022/11/28 05:42:01;;;;;;;68.60;36.70;;;;;;;-0.65;85.38;100608.36;207900;1293;139951;-65
2022/11/28 05:47:04;;;;;;;55.80;27.90;;;;;;;-0.57;85.51;100608.96;210025;1294;142580;-66
2022/11/28 05:52:08;;;;;;;62.60;32.20;;;;;;;-0.46;85.37;100605.60;210005;1286;141153;-66
2022/11/28 05:57:11;;;;;;;58.80;32.10;;;;;;;-0.35;85.57;100603.61;210007;1298;140329;-66
2022/11/28 06:02:14;;;;;;;61.00;31.00;;;;;;;-0.27;85.81;100601.83;210163;1301;140115;-67
2022/11/28 06:07:18;;;;;;;61.20;28.90;;;;;;;-0.20;85.49;100597.31;209844;1297;141144;-66
2022/11/28 06:12:22;;;;;;;43.90;26.00;;;;;;;-0.14;85.10;100592.14;209968;1300;143443;-65
2022/11/28 06:17:25;;;;;;;49.90;28.70;;;;;;;-0.15;85.04;100587.50;209940;1295;141135;-66
2022/11/28 06:22:28;;;;;;;52.30;24.90;;;;;;;-0.15;85.17;100588.73;210119;1291;141215;-67
2022/11/28 06:27:34;;;;;;;37.70;18.00;;;;;;;-0.13;85.38;100588.93;210120;1295;140174;-66
2022/11/28 06:32:37;;;;;;;38.30;18.10;;;;;;;0.01;86.03;100588.67;209706;1297;140435;-65
2022/11/28 06:37:40;;;;;;;27.50;15.30;;;;;;;0.14;86.26;100591.94;209900;1297;142085;-65
2022/11/28 06:42:44;;;;;;;36.20;22.10;;;;;;;0.24;86.17;100592.00;209644;1304;139854;-66
2022/11/28 06:47:47;;;;;;;35.70;19.30;;;;;;;0.34;86.41;100589.44;209722;1291;140935;-68
2022/11/28 06:52:50;;;;;;;33.00;18.00;;;;;;;0.49;86.17;100589.98;210071;1295;140044;-68
2022/11/28 06:57:54;;;;;;;28.80;17.40;;;;;;;0.60;86.38;100588.88;207921;1290;140466;-67
2022/11/28 07:02:58;;;;;;;27.50;15.90;;;;;;;0.64;86.61;100584.96;210064;1286;140273;-67
2022/11/28 07:08:01;;;;;;;39.10;17.30;;;;;;;0.67;86.54;100585.91;210168;1288;142079;-64
2022/11/28 07:13:06;;;;;;;42.90;21.00;;;;;;;0.78;86.53;100587.77;209942;1295;141921;-67
2022/11/28 07:18:09;;;;;;;31.60;18.20;;;;;;;0.86;86.65;100584.39;209932;1296;141762;-64
2022/11/28 07:23:13;;;;;;;33.50;17.60;;;;;;;0.89;86.64;100577.08;209963;1297;140357;-66
2022/11/28 07:28:16;;;;;;;32.70;16.30;;;;;;;1.00;86.67;100572.95;210119;1297;140461;-66
2022/11/28 07:33:25;;;;;;;28.80;16.00;;;;;;;1.13;86.68;100571.58;209972;1298;141532;-64
2022/11/28 07:38:29;;;;;;;30.20;17.50;;;;;;;1.25;87.21;100563.96;209693;1287;140238;-67
2022/11/28 07:43:33;;;;;;;32.60;17.80;;;;;;;1.36;86.70;100563.22;207744;1297;139890;-68
2022/11/28 07:48:36;;;;;;;27.20;16.40;;;;;;;1.51;86.96;100558.55;210099;1290;141772;-63
2022/11/28 07:53:41;;;;;;;31.00;16.70;;;;;;;1.63;87.02;100557.34;209887;1296;140888;-66
2022/11/28 07:58:46;;;;;;;28.10;15.20;;;;;;;1.68;86.63;100555.73;210095;1293;141371;-63
2022/11/28 08:03:51;;;;;;;33.90;15.70;;;;;;;1.77;86.42;100548.20;209756;1288;140545;-66
2022/11/28 08:08:56;;;;;;;29.20;14.80;;;;;;;1.86;86.32;100541.80;209825;1294;140344;-66
2022/11/28 08:13:59;;;;;;;27.40;12.80;;;;;;;1.92;86.38;100539.07;209723;1288;141070;-65
2022/11/28 08:19:02;;;;;;;25.10;12.90;;;;;;;1.96;86.13;100536.23;210156;1297;141211;-65
2022/11/28 08:24:09;;;;;;;24.90;13.30;;;;;;;2.02;86.41;100533.77;210052;1300;140848;-66
2022/11/28 08:29:12;;;;;;;29.70;12.80;;;;;;;2.09;86.59;100532.63;209926;1297;140487;-65
2022/11/28 08:34:16;;;;;;;25.30;13.30;;;;;;;2.22;86.30;100533.50;209923;1296;140087;-65
2022/11/28 08:39:20;;;;;;;17.30;10.90;;;;;;;2.31;86.21;100536.13;209869;1302;140876;-64
2022/11/28 08:44:27;;;;;;;23.00;14.40;;;;;;;2.44;86.25;100532.19;209986;1297;141754;-65
2022/11/28 08:49:35;;;;;;;22.00;11.60;;;;;;;2.59;86.14;100531.32;209875;1297;142088;-65
2022/11/28 08:54:40;;;;;;;33.40;17.00;;;;;;;2.68;86.15;100530.84;209834;1298;140966;-64
2022/11/28 08:59:43;;;;;;;25.60;14.20;;;;;;;2.80;85.76;100528.98;209879;1287;140561;-65
2022/11/28 09:04:47;;;;;;;30.10;15.60;;;;;;;2.81;85.63;100522.53;209517;1286;140885;-65
2022/11/28 09:09:51;;;;;;;48.90;19.20;;;;;;;2.86;85.36;100518.02;210175;1302;152908;-64
2022/11/28 09:14:54;;;;;;;29.60;14.90;;;;;;;2.87;85.20;100512.06;209968;1295;141036;-66
2022/11/28 09:19:58;;;;;;;31.40;13.50;;;;;;;2.95;85.26;100512.61;210120;1296;140457;-66
2022/11/28 09:25:02;;;;;;;23.30;14.10;;;;;;;2.98;85.05;100510.31;208245;1295;142467;-66
2022/11/28 09:30:08;;;;;;;25.90;14.30;;;;;;;2.99;84.81;100510.02;209771;1298;141652;-63
2022/11/28 09:35:11;;;;;;;28.60;14.20;;;;;;;3.02;84.88;100506.93;208629;1297;140714;-64
2022/11/28 09:40:33;;;;;;;26.60;15.60;;;;;;;3.10;84.96;100507.81;209505;1287;140028;-64
2022/11/28 09:45:37;;;;;;;28.90;13.70;;;;;;;3.21;84.79;100504.02;210149;1297;140459;-63
2022/11/28 09:50:41;;;;;;;24.30;12.50;;;;;;;3.27;84.45;100498.27;207891;1280;153615;-63
2022/11/28 09:55:51;;;;;;;20.90;14.00;;;;;;;3.44;84.34;100495.61;209970;1297;145352;-64
2022/11/28 10:01:01;;;;;;;24.60;12.20;;;;;;;3.54;84.57;100488.73;210149;1303;139837;-64
2022/11/28 10:06:30;;;;;;;22.10;10.90;;;;;;;3.63;84.03;100483.36;210064;1297;140823;-64
2022/11/28 10:11:41;;;;;;;18.10;10.30;;;;;;;3.66;83.63;100478.73;210036;1295;140116;-63
2022/11/28 10:17:14;;;;;;;16.20;10.10;;;;;;;3.72;83.66;100475.20;210126;1297;140414;-63
2022/11/28 10:22:26;;;;;;;18.60;10.70;;;;;;;3.81;83.13;100469.81;209959;1288;143460;-65
2022/11/28 10:27:34;;;;;;;15.90;10.10;;;;;;;3.78;82.82;100463.00;210094;1296;140005;-65
2022/11/28 10:32:41;;;;;;;;;;;;;;;3.77;82.31;100460.27;210182;1297;140364;-65
2022/11/28 10:37:44;;;;;;;12.30;7.90;;;;;;;3.76;82.22;100457.44;210793;1298;127081;-65
2022/11/28 10:42:55;;;;;;;13.50;7.90;;;;;;;3.74;81.97;100454.81;210109;1295;152524;-66
2022/11/28 11:01:49;;;;;;;14.80;9.80;;;;;;;3.65;81.12;100444.58;201377;1297;10144299;-65
2022/11/28 11:07:12;;;;;;;19.30;11.60;;;;;;;3.67;81.02;100443.08;209039;1293;140768;-66
2022/11/28 11:12:29;;;;;;;18.30;12.20;;;;;;;3.63;80.92;100444.96;208574;1294;218954;-65
2022/11/28 11:17:36;;;;;;;16.80;11.50;;;;;;;3.63;80.99;100443.23;208022;1303;140067;-65
2022/11/28 11:23:00;;;;;;;17.80;12.10;;;;;;;3.61;80.75;100441.35;208103;1296;140449;-66
2022/11/28 11:28:04;;;;;;;18.10;9.60;;;;;;;3.54;80.77;100435.27;209030;1301;141352;-65
2022/11/28 11:33:16;;;;;;;17.70;11.20;;;;;;;3.55;80.88;100434.16;209039;1301;141094;-65
2022/11/28 11:38:20;;;;;;;22.80;12.00;;;;;;;3.57;80.97;100436.82;209014;1303;140769;-65
2022/11/28 11:43:36;;;;;;;19.20;12.00;;;;;;;3.64;80.83;100435.87;209046;1287;140980;-66
2022/11/28 11:48:43;;;;;;;33.50;13.80;;;;;;;3.71;81.20;100429.64;208987;1309;140679;-67
2022/11/28 11:53:47;;;;;;;27.00;17.70;;;;;;;3.86;80.96;100423.86;208768;1303;140554;-67
2022/11/28 11:58:54;;;;;;;26.80;13.10;;;;;;;4.00;80.90;100433.60;210000;1296;140116;-67
2022/11/28 12:04:08;;;;;;;66.50;21.90;;;;;;;4.01;80.57;100431.51;210216;1295;140541;-67
2022/11/28 12:09:45;;;;;;;95.20;32.00;;;;;;;3.97;79.90;100427.02;210016;1295;140564;-66
2022/11/28 12:14:52;;;;;;;38.90;19.00;;;;;;;3.95;80.51;100415.11;210114;1288;140375;-67
2022/11/28 12:20:24;;;;;;;23.40;13.30;;;;;;;4.06;80.43;100408.98;210008;1303;140934;-66
2022/11/28 12:25:55;;;;;;;27.90;17.00;;;;;;;4.09;80.37;100404.02;210095;1297;140637;-65
2022/11/28 12:31:20;;;;;;;24.10;15.60;;;;;;;4.08;79.98;100408.51;210118;1296;141080;-66
2022/11/28 12:36:42;;;;;;;19.20;10.40;;;;;;;4.02;79.48;100405.72;210099;1304;141388;-64
2022/11/28 12:42:14;;;;;;;21.70;12.90;;;;;;;3.86;79.67;100405.64;210005;1298;140014;-64
2022/11/28 12:47:34;;;;;;;23.70;12.10;;;;;;;3.76;79.70;100402.16;209830;1288;142011;-64
2022/11/28 12:53:08;;;;;;;15.80;10.00;;;;;;;3.66;79.67;100396.95;210233;1298;140761;-65
2022/11/28 12:58:23;;;;;;;22.30;12.80;;;;;;;3.64;79.93;100398.79;210232;1295;140906;-66
2022/11/28 13:04:18;;;;;;;20.80;13.60;;;;;;;3.73;79.86;100395.29;210124;1295;139674;-64
2022/11/28 13:09:47;;;;;;;18.30;10.90;;;;;;;3.66;79.84;100394.29;208268;1305;140410;-65
2022/11/28 13:14:56;;;;;;;17.60;11.20;;;;;;;3.66;79.97;100388.52;209820;1297;139792;-67
2022/11/28 13:20:11;;;;;;;23.80;13.00;;;;;;;3.66;79.79;100387.53;207605;1297;250256;-65
2022/11/28 13:25:38;;;;;;;21.90;13.90;;;;;;;3.59;79.71;100384.77;210152;1288;139782;-65
2022/11/28 13:30:50;;;;;;;19.50;13.10;;;;;;;3.53;79.78;100383.73;210194;1298;140251;-64
2022/11/28 13:36:00;;;;;;;38.20;14.30;;;;;;;3.46;79.66;100382.08;209812;1295;140297;-66
2022/11/28 13:41:19;;;;;;;18.40;11.90;;;;;;;3.38;79.84;100379.89;206787;1302;140387;-66
2022/11/28 13:46:48;;;;;;;22.50;12.10;;;;;;;3.36;79.85;100380.34;208854;1288;236008;-66
2022/11/28 13:52:14;;;;;;;15.90;11.00;;;;;;;3.36;80.13;100378.06;210096;1303;245199;-67
2022/11/28 13:57:38;;;;;;;24.70;14.50;;;;;;;3.38;79.96;100376.11;210150;1297;139786;-67
2022/11/28 14:02:51;;;;;;;21.50;11.30;;;;;;;3.35;79.98;100377.50;210054;1288;140395;-65
2022/11/28 14:07:57;;;;;;;37.50;19.60;;;;;;;3.31;79.99;100372.14;209903;1297;142260;-67
2022/11/28 14:13:21;;;;;;;27.20;14.20;;;;;;;3.31;80.08;100373.20;210112;1287;139767;-66
2022/11/28 14:18:34;;;;;;;28.90;18.30;;;;;;;3.31;79.98;100366.88;210079;1288;140798;-64
2022/11/28 14:24:11;;;;;;;32.90;17.90;;;;;;;3.29;79.95;100362.89;209933;1303;249413;-64
2022/11/28 14:29:35;;;;;;;34.50;20.00;;;;;;;3.22;79.88;100362.30;210183;1296;140251;-64
2022/11/28 14:34:45;;;;;;;40.10;21.80;;;;;;;3.15;79.85;100361.73;210031;1297;238233;-64
2022/11/28 14:39:51;;;;;;;41.90;21.70;;;;;;;3.05;79.99;100360.20;210187;1294;141010;-69
2022/11/28 14:45:00;;;;;;;35.80;17.40;;;;;;;3.05;80.18;100363.86;209879;1300;140470;-64
2022/11/28 14:50:12;;;;;;;35.20;20.10;;;;;;;3.03;80.10;100367.20;210075;1296;141027;-64
2022/11/28 14:55:21;;;;;;;37.40;21.40;;;;;;;2.99;80.05;100366.31;209203;1293;140599;-64
2022/11/28 15:00:26;;;;;;;;;;;;;;;2.93;80.10;100365.02;209132;1288;248984;-65
2022/11/28 15:06:06;;;;;;;36.60;22.90;;;;;;;2.86;80.19;100366.68;208422;1298;126631;-65
2022/11/28 15:11:57;;;;;;;33.30;19.20;;;;;;;2.77;80.41;100368.89;208568;1295;139470;-68
2022/11/28 15:17:05;;;;;;;30.70;17.00;;;;;;;2.75;80.30;100363.39;210000;1287;245295;-68
2022/11/28 15:22:31;;;;;;;33.20;17.10;;;;;;;2.74;80.47;100365.05;207847;1288;140316;-66
2022/11/28 15:27:35;;;;;;;35.40;18.50;;;;;;;2.69;80.57;100360.65;209894;1297;140745;-71
2022/11/28 15:32:41;;;;;;;41.10;19.50;;;;;;;2.69;80.67;100362.52;206748;1294;140191;-70
2022/11/28 15:37:50;;;;;;;46.20;24.70;;;;;;;2.63;80.58;100364.44;208626;1288;140731;-70
2022/11/28 15:42:55;;;;;;;45.90;22.50;;;;;;;2.57;80.80;100367.61;208973;1280;141141;-71
2022/11/28 15:48:03;;;;;;;43.10;19.20;;;;;;;2.50;80.81;100367.13;210002;1290;142223;-72
2022/11/28 15:53:18;;;;;;;39.30;21.30;;;;;;;2.47;81.02;100366.80;210091;1295;140889;-70
2022/11/28 15:58:30;;;;;;;28.50;17.20;;;;;;;2.46;81.10;100364.79;208863;1288;140367;-69
2022/11/28 16:03:54;;;;;;;30.60;18.40;;;;;;;2.43;80.95;100355.30;210020;1298;141567;-71
2022/11/28 16:09:08;;;;;;;33.40;18.10;;;;;;;2.46;81.29;100357.63;209983;1298;140749;-70
2022/11/28 16:14:33;;;;;;;35.40;17.60;;;;;;;2.48;80.98;100355.48;209739;1297;141592;-73
2022/11/28 16:19:38;;;;;;;33.10;18.30;;;;;;;2.44;81.18;100359.06;209847;1297;141045;-70
2022/11/28 16:24:55;;;;;;;34.90;19.80;;;;;;;2.43;80.94;100361.98;209864;1297;140480;-69
2022/11/28 16:29:59;;;;;;;40.20;18.70;;;;;;;2.35;81.06;100366.96;209867;1298;142562;-68
2022/11/28 16:35:05;;;;;;;35.00;16.00;;;;;;;2.34;81.18;100363.96;210062;1297;140371;-67
2022/11/28 16:40:22;;;;;;;27.90;16.80;;;;;;;2.32;81.28;100365.55;209868;1297;140509;-69
2022/11/28 16:45:31;;;;;;;31.90;16.10;;;;;;;2.31;81.34;100371.83;207984;1298;140395;-69
2022/11/28 16:50:37;;;;;;;21.40;14.00;;;;;;;2.31;81.36;100369.69;209115;1297;139932;-68
2022/11/28 16:55:43;;;;;;;37.70;20.50;;;;;;;2.35;81.21;100371.08;209062;1287;140491;-67
2022/11/28 17:01:01;;;;;;;32.80;17.50;;;;;;;2.31;81.36;100367.27;206633;1304;141956;-67
2022/11/28 17:06:19;;;;;;;28.30;15.30;;;;;;;2.33;81.50;100368.30;209966;1296;141355;-66
2022/11/28 17:11:28;;;;;;;68.10;24.40;;;;;;;2.27;81.42;100369.30;210152;1296;139449;-68
2022/11/28 17:16:34;;;;;;;89.10;27.40;;;;;;;2.27;81.34;100365.84;209848;1298;140521;-65
2022/11/28 17:21:43;;;;;;;50.50;20.70;;;;;;;2.24;81.66;100368.73;210017;1297;141731;-65
2022/11/28 17:26:48;;;;;;;40.70;19.30;;;;;;;2.27;81.50;100372.95;208401;1295;141165;-65
2022/11/28 17:31:56;;;;;;;102.90;36.70;;;;;;;2.27;81.55;100373.70;209883;1301;140493;-66
2022/11/28 17:37:01;;;;;;;38.40;21.40;;;;;;;2.29;81.47;100376.30;209988;1296;141199;-68
2022/11/28 17:42:09;;;;;;;38.80;18.00;;;;;;;2.21;81.38;100385.37;210099;1295;140925;-71
2022/11/28 17:47:14;;;;;;;41.60;21.40;;;;;;;2.16;81.55;100385.07;209839;1305;141465;-68
2022/11/28 17:52:19;;;;;;;35.20;21.90;;;;;;;2.15;81.81;100384.05;209775;1292;140711;-67
2022/11/28 17:57:24;;;;;;;34.40;18.70;;;;;;;2.16;81.93;100389.94;209900;1297;141197;-71
2022/11/28 18:02:28;;;;;;;35.20;17.10;;;;;;;2.16;81.78;100387.67;210040;1297;139920;-69
2022/11/28 18:07:33;;;;;;;35.90;18.60;;;;;;;2.13;81.78;100383.67;209007;1287;142163;-69
2022/11/28 18:12:41;;;;;;;45.80;22.00;;;;;;;2.13;81.89;100379.80;209862;1293;141682;-66
2022/11/28 18:17:47;;;;;;;42.90;23.10;;;;;;;2.08;81.85;100376.31;210054;1298;140299;-67
2022/11/28 18:22:51;;;;;;;38.40;23.40;;;;;;;2.06;81.94;100381.80;210049;1297;142684;-67
2022/11/28 18:27:55;;;;;;;38.00;18.10;;;;;;;2.00;82.14;100384.29;209946;1295;141277;-67
2022/11/28 18:32:59;;;;;;;37.40;22.90;;;;;;;2.00;82.08;100378.27;210044;1294;151774;-66
2022/11/28 18:38:04;;;;;;;34.90;21.80;;;;;;;1.99;82.33;100381.99;210137;1296;141731;-67
2022/11/28 18:43:10;;;;;;;35.30;22.20;;;;;;;1.96;82.19;100379.29;209967;1303;139944;-66
2022/11/28 18:48:14;;;;;;;37.90;19.70;;;;;;;1.95;82.25;100383.27;210215;1293;140083;-66
2022/11/28 18:53:18;;;;;;;33.50;18.80;;;;;;;1.94;82.15;100386.18;210123;1301;140377;-66
2022/11/28 18:58:22;;;;;;;34.60;21.20;;;;;;;1.93;82.46;100375.28;209802;1294;140213;-64
2022/11/28 19:03:25;;;;;;;32.80;19.90;;;;;;;1.88;82.53;100374.93;210041;1295;140316;-67
2022/11/28 19:08:29;;;;;;;182.10;50.70;;;;;;;1.87;82.61;100376.05;210012;1300;142468;-66
2022/11/28 19:13:37;;;;;;;68.60;24.30;;;;;;;1.83;82.70;100379.44;210088;1293;142005;-66
2022/11/28 19:18:43;;;;;;;43.30;20.60;;;;;;;1.85;82.51;100378.52;208269;1288;142371;-66
2022/11/28 19:23:47;;;;;;;32.40;19.10;;;;;;;1.84;82.52;100376.91;210245;1296;141272;-66
2022/11/28 19:28:51;;;;;;;29.30;16.20;;;;;;;1.81;82.72;100378.52;209999;1290;140842;-64
2022/11/28 19:34:03;;;;;;;37.60;18.70;;;;;;;1.76;82.79;100370.44;210024;1294;140321;-67
2022/11/28 19:39:25;;;;;;;29.60;15.80;;;;;;;1.78;82.56;100370.94;209586;1297;140224;-65
2022/11/28 19:44:29;;;;;;;29.60;17.60;;;;;;;1.71;82.59;100370.81;209681;1281;141813;-68
2022/11/28 19:49:34;;;;;;;33.70;19.10;;;;;;;1.68;82.68;100370.59;210098;1297;141405;-66
2022/11/28 19:54:38;;;;;;;33.60;15.90;;;;;;;1.66;82.83;100364.60;209715;1295;140032;-67
2022/11/28 19:59:43;;;;;;;27.80;18.10;;;;;;;1.71;82.88;100364.48;209944;1296;140244;-63
2022/11/28 20:04:47;;;;;;;26.50;16.60;;;;;;;1.71;82.62;100366.09;210014;1297;142031;-67
2022/11/28 20:09:51;;;;;;;26.50;14.10;;;;;;;1.66;82.69;100366.66;210219;1293;141839;-66
2022/11/28 20:14:55;;;;;;;29.70;15.30;;;;;;;1.65;82.72;100370.90;210114;1301;139825;-67
2022/11/28 20:19:59;;;;;;;29.50;16.50;;;;;;;1.62;82.62;100373.09;209908;1293;142181;-69
2022/11/28 20:25:04;;;;;;;31.10;16.00;;;;;;;1.60;82.76;100369.64;210101;1283;153235;-67
2022/11/28 20:30:08;;;;;;;34.40;18.10;;;;;;;1.59;82.73;100367.30;210066;1293;140428;-64
2022/11/28 20:35:12;;;;;;;30.90;15.20;;;;;;;1.61;82.94;100374.44;210032;1297;141412;-68
2022/11/28 20:40:16;;;;;;;34.60;16.90;;;;;;;1.57;82.91;100370.33;208835;1293;140534;-67
2022/11/28 20:45:21;;;;;;;30.60;15.20;;;;;;;1.57;82.88;100372.20;210053;1290;141491;-63
2022/11/28 20:50:24;;;;;;;26.70;13.80;;;;;;;1.56;82.87;100370.74;210062;1301;140428;-68
2022/11/28 20:55:28;;;;;;;29.90;15.90;;;;;;;1.59;82.75;100379.52;210070;1298;142108;-66
2022/11/28 21:00:32;;;;;;;29.00;16.40;;;;;;;1.56;83.02;100379.85;210077;1295;139743;-66
2022/11/28 21:05:35;;;;;;;60.40;23.70;;;;;;;1.53;82.87;100379.60;210057;1296;142131;-63
2022/11/28 21:10:39;;;;;;;36.70;19.10;;;;;;;1.52;82.98;100380.45;209799;1296;139709;-64
2022/11/28 21:15:44;;;;;;;43.90;18.80;;;;;;;1.52;82.88;100378.70;209164;1297;140348;-68
2022/11/28 21:20:48;;;;;;;28.30;15.90;;;;;;;1.57;82.80;100381.71;209881;1294;140157;-67
2022/11/28 21:25:52;;;;;;;27.20;13.60;;;;;;;1.55;82.72;100381.58;209917;1289;140242;-68
2022/11/28 21:30:57;;;;;;;33.90;16.40;;;;;;;1.50;82.74;100387.86;209772;1302;141711;-64
2022/11/28 21:36:02;;;;;;;29.60;16.60;;;;;;;1.43;82.99;100390.70;208764;1290;140525;-66
2022/11/28 21:41:05;;;;;;;28.80;18.60;;;;;;;1.39;82.87;100388.13;210088;1303;140739;-66
2022/11/28 21:46:10;;;;;;;30.20;16.70;;;;;;;1.32;82.84;100385.06;210001;1296;141418;-62
2022/11/28 21:51:16;;;;;;;29.80;15.50;;;;;;;1.27;82.85;100388.16;207684;1295;142392;-67
2022/11/28 21:56:20;;;;;;;26.20;14.00;;;;;;;1.22;83.26;100389.96;209778;1302;140192;-63
2022/11/28 22:01:24;;;;;;;31.80;15.70;;;;;;;1.21;82.95;100388.66;209930;1298;140125;-64
2022/11/28 22:06:28;;;;;;;25.60;12.70;;;;;;;1.14;82.95;100390.08;209797;1294;140438;-66
2022/11/28 22:11:32;;;;;;;29.30;15.10;;;;;;;1.12;83.31;100392.35;209758;1299;140299;-65
2022/11/28 22:16:36;;;;;;;34.20;18.60;;;;;;;1.10;82.97;100387.91;209827;1302;141920;-63
2022/11/28 22:21:39;;;;;;;21.20;12.80;;;;;;;1.11;83.13;100389.33;209745;1299;140126;-68
2022/11/28 22:26:57;;;;;;;;;;;;;;;1.08;83.05;100389.25;209943;1304;140028;-64
2022/11/28 22:32:02;;;;;;;27.30;14.10;;;;;;;1.09;82.98;100387.52;210528;1303;126712;-69
2022/11/28 22:37:05;;;;;;;23.40;14.70;;;;;;;1.02;82.78;100386.40;209768;1297;139783;-67
2022/11/28 22:42:09;;;;;;;27.10;16.40;;;;;;;0.96;82.61;100383.97;209714;1296;141622;-65
2022/11/28 22:47:12;;;;;;;29.00;16.50;;;;;;;0.90;83.20;100389.20;209974;1297;139937;-69
2022/11/28 22:52:15;;;;;;;23.20;15.60;;;;;;;0.84;82.97;100386.13;209911;1297;140548;-68
2022/11/28 22:57:19;;;;;;;24.30;16.30;;;;;;;0.75;83.46;100388.79;209945;1290;142281;-66
2022/11/28 23:02:22;;;;;;;30.50;18.00;;;;;;;0.78;83.56;100388.18;209468;1298;400084;-68
2022/11/28 23:07:26;;;;;;;24.70;15.30;;;;;;;0.73;83.23;100393.73;209757;1295;141157;-68
2022/11/28 23:12:29;;;;;;;36.00;18.00;;;;;;;0.74;83.22;100388.91;210001;1301;140696;-63
2022/11/28 23:17:33;;;;;;;33.30;18.40;;;;;;;0.66;83.40;100387.77;210155;1294;140914;-68
2022/11/28 23:22:36;;;;;;;24.10;14.40;;;;;;;0.71;83.42;100385.21;210032;1295;140838;-69